createdAt,value
2019-02-07T00:04:02.671Z,6.13
2019-02-07T00:09:08.272Z,5.77
2019-02-07T00:14:11.550Z,6.53
2019-02-07T00:19:14.910Z,6.23
2019-02-07T00:24:18.434Z,5.47
2019-02-07T00:29:21.980Z,6.43
2019-02-07T00:34:25.260Z,5.77
2019-02-07T00:39:28.838Z,5.50
2019-02-07T00:44:32.122Z,6.23
2019-02-07T00:49:35.429Z,5.90
2019-02-07T00:54:38.758Z,6.20
2019-02-07T00:59:42.328Z,6.00
2019-02-07T01:04:45.841Z,5.70
2019-02-07T01:09:49.412Z,5.37
2019-02-07T01:15:01.613Z,5.50
2019-02-07T01:19:57.831Z,5.57
2019-02-07T01:25:01.116Z,6.00
2019-02-07T01:30:10.577Z,5.17
2019-02-07T01:35:14.548Z,5.77
2019-02-07T01:40:19.313Z,6.43
2019-02-07T01:45:23.931Z,5.43
2019-02-07T01:50:27.280Z,6.00
2019-02-07T01:55:30.558Z,5.53
2019-02-07T02:00:34.161Z,4.90
2019-02-07T02:05:37.442Z,5.70
2019-02-07T02:10:40.974Z,6.57
2019-02-07T02:15:44.501Z,6.70
2019-02-07T02:20:47.791Z,5.97
2019-02-07T02:25:51.313Z,6.53
2019-02-07T02:30:54.582Z,6.27
2019-02-07T02:35:57.865Z,6.70
2019-02-07T02:41:01.146Z,7.07
2019-02-07T02:46:04.676Z,7.23
2019-02-07T02:51:07.946Z,7.20
2019-02-07T02:56:11.293Z,7.60
2019-02-07T03:01:16.456Z,7.30
2019-02-07T03:06:21.386Z,6.77
2019-02-07T03:11:26.306Z,7.33
2019-02-07T03:16:37.673Z,7.20
2019-02-07T03:21:49.028Z,6.87
2019-02-07T03:27:05.868Z,6.10
2019-02-07T03:32:13.731Z,7.33
2019-02-07T03:37:35.104Z,7.73
2019-02-07T03:42:40.022Z,7.70
2019-02-07T03:47:55.108Z,7.07
2019-02-07T03:53:16.339Z,7.47
2019-02-07T03:58:24.770Z,7.27
2019-02-07T04:03:29.686Z,6.60
2019-02-07T04:08:49.949Z,5.97
2019-02-07T04:13:54.872Z,6.70
2019-02-07T04:19:03.018Z,5.70
2019-02-07T04:24:19.937Z,5.30
2019-02-07T04:29:30.714Z,6.07
2019-02-07T04:34:35.638Z,5.90
2019-02-07T04:39:58.417Z,6.00
2019-02-07T04:45:09.297Z,5.20
2019-02-07T04:50:30.581Z,5.80
2019-02-07T04:55:36.727Z,5.83
2019-02-07T05:00:44.535Z,8.20
2019-02-07T05:05:49.475Z,5.43
2019-02-07T05:11:03.510Z,5.33
2019-02-07T05:16:24.357Z,6.10
2019-02-07T05:21:47.899Z,6.13
2019-02-07T05:26:55.659Z,5.30
2019-02-07T05:32:17.016Z,6.03
2019-02-07T05:37:30.452Z,5.50
2019-02-07T05:42:36.324Z,6.00
2019-02-07T05:47:56.003Z,6.03
2019-02-07T05:53:00.933Z,7.10
2019-02-07T05:58:09.509Z,6.17
2019-02-07T06:03:32.728Z,6.67
2019-02-07T06:08:40.299Z,6.03
2019-02-07T06:14:00.503Z,6.47
2019-02-07T06:19:17.976Z,6.47
2019-02-07T06:24:23.152Z,6.90
2019-02-07T06:29:28.080Z,6.80
2019-02-07T06:34:35.921Z,7.60
2019-02-07T06:39:43.344Z,7.27
2019-02-07T06:44:54.799Z,7.20
2019-02-07T06:49:59.720Z,7.77
2019-02-07T06:55:16.917Z,7.47
2019-02-07T07:00:31.027Z,7.47
2019-02-07T07:05:45.079Z,7.60
2019-02-07T07:10:59.191Z,7.10
2019-02-07T07:16:10.242Z,7.23
2019-02-07T07:21:15.405Z,6.37
2019-02-07T07:26:29.073Z,6.50
2019-02-07T07:31:37.190Z,5.13
2019-02-07T07:36:45.196Z,6.83
2019-02-07T07:41:55.899Z,6.53
2019-02-07T07:47:03.308Z,6.03
2019-02-07T07:52:13.981Z,5.30
2019-02-07T07:57:19.138Z,8.03
2019-02-07T08:02:24.070Z,6.43
2019-02-07T08:07:29.241Z,7.07
2019-02-07T08:12:49.091Z,6.83
2019-02-07T08:18:10.516Z,5.70
2019-02-07T08:23:18.127Z,4.63
2019-02-07T08:28:35.264Z,7.73
2019-02-07T08:33:40.812Z,4.93
2019-02-07T08:38:51.961Z,5.47
2019-02-07T08:44:14.141Z,6.80
2019-02-07T08:49:24.497Z,6.17
2019-02-07T08:54:32.632Z,6.33
2019-02-07T08:59:40.215Z,6.03
2019-02-07T09:05:03.237Z,6.67
2019-02-07T09:10:17.238Z,7.10
2019-02-07T09:15:22.400Z,6.97
2019-02-07T09:20:27.579Z,7.03
2019-02-07T09:25:48.838Z,7.43
2019-02-07T09:30:56.407Z,8.20
2019-02-07T09:36:05.638Z,7.73
2019-02-07T09:41:13.524Z,7.70
2019-02-07T09:46:34.744Z,7.13
2019-02-07T09:51:42.336Z,6.60
2019-02-07T09:56:59.467Z,5.20
2019-02-07T10:02:07.591Z,5.80
2019-02-07T10:07:21.732Z,4.13
2019-02-07T10:12:27.186Z,3.20
2019-02-07T10:17:41.007Z,3.03
2019-02-07T10:22:58.595Z,3.00
2019-02-07T10:28:03.769Z,2.40
2019-02-07T10:33:14.966Z,3.00
2019-02-07T10:38:38.015Z,2.80
2019-02-07T10:43:45.887Z,2.47
2019-02-07T10:49:07.329Z,2.90
2019-02-07T10:54:16.674Z,2.70
2019-02-07T10:59:21.926Z,3.33
2019-02-07T11:04:39.324Z,1.93
2019-02-07T11:09:53.541Z,2.83
2019-02-07T11:14:58.462Z,3.37
2019-02-07T11:20:03.384Z,3.60
2019-02-07T11:25:27.033Z,3.23
2019-02-07T11:30:34.796Z,3.37
2019-02-07T11:35:39.716Z,2.63
2019-02-07T11:40:56.693Z,2.60
2019-02-07T11:46:18.008Z,2.77
2019-02-07T11:51:29.020Z,2.60
2019-02-07T11:56:37.051Z,2.93
2019-02-07T12:01:50.886Z,2.87
2019-02-07T12:07:12.171Z,2.03
2019-02-07T12:12:33.728Z,2.30
2019-02-07T12:17:51.985Z,2.20
2019-02-07T12:23:12.036Z,2.73
2019-02-07T12:28:36.206Z,1.80
2019-02-07T12:33:56.396Z,2.63
2019-02-07T12:39:05.794Z,2.37
2019-02-07T12:44:20.060Z,2.17
2019-02-07T12:49:29.467Z,2.77
2019-02-07T12:54:37.738Z,2.67
2019-02-07T12:59:54.800Z,2.87
2019-02-07T13:05:16.172Z,2.53
2019-02-07T13:10:27.346Z,3.53
2019-02-07T13:15:34.975Z,2.47
2019-02-07T13:20:42.705Z,2.53
2019-02-07T13:25:50.029Z,2.13
2019-02-07T13:30:54.976Z,2.10
2019-02-07T13:36:00.127Z,1.60
2019-02-07T13:41:11.197Z,2.80
2019-02-07T13:46:28.547Z,1.97
2019-02-07T13:51:51.325Z,3.30
2019-02-07T13:56:58.913Z,2.20
2019-02-07T14:02:16.290Z,1.93
2019-02-07T14:07:39.804Z,1.53
2019-02-07T14:12:44.302Z,2.13
2019-02-07T14:17:55.285Z,2.10
2019-02-07T14:23:16.436Z,1.77
2019-02-07T14:28:30.575Z,1.60
2019-02-07T14:33:44.484Z,1.90
2019-02-07T14:38:52.403Z,2.00
2019-02-07T14:44:03.658Z,2.10
2019-02-07T14:49:06.942Z,1.33
2019-02-07T14:54:10.468Z,1.40
2019-02-07T14:59:13.817Z,1.50
2019-02-07T15:04:17.089Z,1.70
2019-02-07T15:09:22.543Z,1.17
2019-02-07T15:14:26.083Z,1.73
2019-02-07T15:19:29.622Z,1.50
2019-02-07T15:24:32.948Z,3.17
2019-02-07T15:29:36.240Z,1.70
2019-02-07T15:34:41.069Z,1.20
2019-02-07T15:46:37.047Z,1.73
2019-02-07T15:51:17.921Z,1.40
2019-02-07T15:56:32.032Z,1.03
2019-02-07T16:01:37.855Z,1.33
2019-02-07T16:06:49.028Z,1.10
2019-02-07T16:11:52.330Z,1.80
2019-02-07T16:16:55.907Z,1.73
2019-02-07T16:21:59.434Z,2.43
2019-02-07T16:27:04.601Z,1.80
2019-02-07T16:32:08.052Z,1.43
2019-02-07T16:37:11.328Z,1.53
2019-02-07T16:42:14.614Z,0.80
2019-02-07T16:47:18.728Z,1.27
2019-02-07T16:52:23.728Z,2.00
2019-02-07T16:57:27.286Z,2.10
2019-02-07T17:02:30.577Z,1.23
2019-02-07T17:07:33.857Z,1.50
2019-02-07T17:12:37.387Z,2.50
2019-02-07T17:17:45.482Z,2.67
2019-02-07T17:22:51.767Z,1.57
2019-02-07T17:27:57.950Z,1.77
2019-02-07T17:33:03.479Z,1.30
2019-02-07T17:38:07.064Z,1.40
2019-02-07T17:43:14.651Z,1.27
2019-02-07T17:48:20.242Z,1.80
2019-02-07T17:53:23.860Z,1.43
2019-02-07T17:58:28.097Z,1.47
2019-02-07T18:03:33.327Z,1.20
2019-02-07T18:08:36.930Z,1.60
2019-02-07T18:13:40.650Z,1.80
2019-02-07T18:18:44.580Z,2.13
2019-02-07T18:23:48.047Z,1.37
2019-02-07T18:28:53.666Z,1.50
2019-02-07T18:33:56.955Z,1.23
2019-02-07T18:39:00.243Z,1.50
2019-02-07T18:44:03.544Z,0.97
2019-02-07T18:49:09.434Z,0.80
2019-02-07T18:54:12.970Z,1.10
2019-02-07T18:59:16.256Z,1.20
2019-02-07T19:04:19.781Z,0.97
2019-02-07T19:09:23.361Z,1.77
2019-02-07T19:14:27.084Z,1.33
2019-02-07T19:19:30.365Z,1.67
2019-02-07T19:24:33.635Z,2.07
2019-02-07T19:29:44.734Z,1.30
2019-02-07T19:34:48.284Z,1.30
2019-02-07T19:39:51.815Z,0.93
2019-02-07T19:44:55.356Z,1.03
2019-02-07T19:49:58.950Z,1.20
2019-02-07T19:55:02.514Z,1.10
2019-02-07T20:00:11.822Z,0.87
2019-02-07T20:05:15.335Z,1.47
2019-02-07T20:10:26.950Z,1.03
2019-02-07T20:15:36.730Z,1.20
2019-02-07T20:20:40.790Z,0.90
2019-02-07T20:25:44.810Z,1.20
2019-02-07T20:35:52.499Z,1.10
2019-02-07T20:40:56.036Z,0.90
2019-02-07T20:45:59.556Z,1.53
2019-02-07T20:51:02.879Z,1.10
2019-02-07T20:56:06.346Z,1.63
2019-02-07T21:01:09.653Z,1.70
2019-02-07T21:06:12.949Z,1.37
2019-02-07T21:11:16.234Z,1.60
2019-02-07T21:16:19.526Z,1.83
2019-02-07T21:21:23.073Z,1.70
2019-02-07T21:26:27.778Z,1.23
2019-02-07T21:31:31.583Z,1.60
2019-02-07T21:36:34.878Z,1.10
2019-02-07T21:41:38.158Z,1.13
2019-02-07T21:46:41.684Z,1.17
2019-02-07T21:51:45.210Z,0.97
2019-02-07T21:56:48.747Z,1.10
2019-02-07T22:01:52.143Z,1.20
2019-02-07T22:06:55.454Z,0.73
2019-02-07T22:11:58.987Z,0.80
2019-02-07T22:17:02.277Z,1.00
2019-02-07T22:22:05.556Z,1.00
2019-02-07T22:27:09.090Z,0.67
2019-02-07T22:32:12.617Z,0.83
2019-02-07T22:37:16.137Z,0.80
2019-02-07T22:42:19.409Z,0.70
2019-02-07T22:47:22.944Z,0.87
2019-02-07T22:52:26.224Z,0.80
2019-02-07T22:57:29.505Z,0.93
2019-02-07T23:02:33.110Z,0.83
2019-02-07T23:07:36.602Z,1.30
2019-02-07T23:12:39.906Z,1.03
2019-02-07T23:17:43.223Z,1.20
2019-02-07T23:22:46.763Z,1.20
2019-02-07T23:27:50.299Z,1.03
2019-02-07T23:32:53.661Z,0.97
2019-02-07T23:37:57.188Z,0.80
2019-02-07T23:43:00.475Z,1.00
2019-02-07T23:48:04.237Z,0.80
2019-02-07T23:53:14.404Z,0.90
2019-02-07T23:58:12.807Z,0.67
